Aeroporto :
LOGIN :

Iscrizione | Disclaimer

   EN    FR    IT 

 










Sommario :    VFR   VFR Marginale   IFR   IFR Intensivo   IFR Molto Intensivo
Visibilità : 
Base nubi : 
>= 8 km
>= 3000ft
5 / 8 km
1000 / 3000 ft
1500m / 5 km
500 / 1000 ft
800 / 1500m
200 / 500 ft
< 800m
< 200 ft
Simboli :   Temporali  Nebbia  Neve Forte  Precipitazioni Forti  Vento > 20 kt
SIGMETs :   Varie  Temporali  Ghiacco  Turbolenza  Onda orograficha  Ceneri Vulcaniche






- Altitudine del aeroporto : 87 ft
- Codice IATA : FSC


LFKF - Figari

ULTIMO METAR :
  • 020630Z AUTO 24012KT 9999 BKN032 BKN042 12/07 Q1010 NOSIG

METARs OBSOLETI :
  • 020600Z AUTO 24013KT 9999 FEW031 12/07 Q1010 NOSIG
  • 020530Z AUTO 24012KT 9999 SCT032 SCT041 12/07 Q1010 NOSIG
  • 020500Z AUTO 24014KT 9999 SCT030 BKN037 BKN054 12/08 Q1010 NOSIG
  • 020430Z AUTO 25013KT 220V280 9999 SCT024 BKN031 BKN052 12/08 Q1009 NOSIG
  • 012100Z AUTO 26015KT 9999 FEW022 BKN029 BKN036 12/09 Q1008 TEMPO 27015G27KT
  • 020400Z AUTO 26014KT 9999 FEW031 12/08 Q1009 TEMPO 27015G25KT
  • 020330Z AUTO 27018KT 9999 FEW030 12/07 Q1009 TEMPO 27015G25KT
  • 020300Z AUTO 26016KT 240V300 9999 FEW024 12/08 Q1009 TEMPO 27015G25KT
  • 020230Z AUTO 26016KT 230V290 9999 SCT025 SCT032 BKN042 13/08 Q1009
  • 020200Z AUTO 26017KT 9999 FEW029 BKN036 BKN044 12/08 Q1009
  • 020130Z AUTO 26015KT 9999 BKN029 BKN038 13/08 Q1009

TAF TAF LFKF
Valido dal 02 a 03 ore il 03 a 03 ore UTC


020200Z 0203/0303 25012KT 9999 SCT030
TEMPO 0203/0205 27015G25KT
BECMG 0221/0223 VRB05KT



MetMap, La meteo Aeronautica in un colpo d'occhio ! - Copyright ORBIFLY Dicembre 2007 - Disclaimer

ORBIFLY MET'MAP TEAM :

Programmazione e sviluppo : Alexandra Zaïnal
Concezione : Baudouin d'Aumeries
Supporto tecnico e logistico : Manuel Goepfert
Aiuto : Marc-Olivier Méhu
Aiuto per la traduzione : Arnaldo La Scala




FONTI E CREDITI :

   NOAA